Time;durP1;ratioP1;P1;durP2;ratioP2;P2;SDS_P1;SDS_P2;PMS_P1;PMS_P2;Temp;Humidity;BMP_temperature;BMP_pressure;BME280_temperature;BME280_humidity;BME280_pressure;Samples;Min_cycle;Max_cycle;Signal;HPM_P1;HPM_P2
2022/03/15 00:01:11;;;;;;;13.45;7.90;;;;;;;8.33;61.62;101865.22;4181976;28;20037;-60
2022/03/15 00:03:14;;;;;;;15.00;8.15;;;;;;;8.40;61.05;101850.88;4194018;28;20050;-59
2022/03/15 00:05:17;;;;;;;12.73;7.60;;;;;;;8.47;61.35;101849.47;4198157;28;20135;-60
2022/03/15 00:07:20;;;;;;;14.93;7.75;;;;;;;8.45;61.40;101843.31;4167961;28;20318;-60
2022/03/15 00:09:23;;;;;;;24.45;9.00;;;;;;;8.46;61.32;101852.88;4187478;28;20111;-60
2022/03/15 00:11:27;;;;;;;13.65;6.93;;;;;;;8.42;61.74;101845.75;4188881;28;20082;-60
2022/03/15 00:13:30;;;;;;;12.35;7.20;;;;;;;8.38;61.38;101845.63;4196255;28;20053;-60
2022/03/15 00:15:35;;;;;;;11.75;7.72;;;;;;;8.41;60.96;101844.88;4179886;28;20387;-59
2022/03/15 00:17:39;;;;;;;13.32;8.25;;;;;;;8.42;61.01;101856.13;4174875;28;20034;-59
2022/03/15 00:19:42;;;;;;;12.57;7.95;;;;;;;8.39;61.31;101855.13;4172400;28;20122;-59
2022/03/15 00:21:44;;;;;;;14.90;7.60;;;;;;;8.38;61.10;101845.63;4198671;28;20413;-59
2022/03/15 00:23:47;;;;;;;16.60;8.63;;;;;;;8.35;61.29;101848.06;4188018;28;20458;-60
2022/03/15 00:25:50;;;;;;;16.23;7.50;;;;;;;8.29;60.90;101846.88;4186879;28;20067;-60
2022/03/15 00:27:55;;;;;;;18.90;7.88;;;;;;;8.30;61.13;101849.56;4181993;28;20052;-60
2022/03/15 00:29:58;;;;;;;;;;;;;;;8.01;61.27;101853.38;4185881;28;20029;-60
2022/03/15 00:32:02;;;;;;;13.02;7.47;;;;;;;8.04;61.60;101856.09;4179415;28;20369;-60
2022/03/15 00:34:04;;;;;;;16.27;8.13;;;;;;;8.15;61.14;101859.22;4197826;28;20106;-60
2022/03/15 00:36:07;;;;;;;13.70;7.55;;;;;;;8.19;61.33;101845.56;4191840;28;20099;-59
2022/03/15 00:38:10;;;;;;;11.48;7.18;;;;;;;8.21;61.79;101843.97;4180502;28;20045;-59
2022/03/15 00:40:15;;;;;;;16.50;8.05;;;;;;;8.21;61.64;101833.59;4178605;28;20052;-60
2022/03/15 00:42:18;;;;;;;21.67;7.97;;;;;;;8.26;61.44;101838.97;4179794;28;20049;-60
2022/03/15 00:44:21;;;;;;;15.70;8.10;;;;;;;8.30;61.68;101831.41;4191620;28;20041;-60
2022/03/15 00:46:23;;;;;;;15.60;8.30;;;;;;;8.31;61.36;101828.00;4195559;28;20042;-60
2022/03/15 00:48:28;;;;;;;15.73;7.95;;;;;;;8.28;61.09;101829.56;4196721;28;20032;-60
2022/03/15 00:50:32;;;;;;;17.73;9.45;;;;;;;8.21;61.81;101834.47;4180456;28;20056;-60
2022/03/15 00:52:35;;;;;;;15.20;8.07;;;;;;;8.19;61.67;101830.03;4177339;28;20510;-60
2022/03/15 00:54:38;;;;;;;13.27;7.38;;;;;;;8.22;61.39;101822.44;4179598;28;20044;-60
2022/03/15 00:56:41;;;;;;;16.20;8.15;;;;;;;8.26;61.10;101821.72;4163976;28;20057;-60
2022/03/15 00:58:43;;;;;;;17.63;8.10;;;;;;;8.24;60.94;101831.13;4168198;28;20041;-60
2022/03/15 01:00:48;;;;;;;12.48;7.78;;;;;;;8.26;61.18;101826.03;4180004;28;20037;-60
2022/03/15 01:02:51;;;;;;;12.32;7.72;;;;;;;8.24;61.26;101822.50;4179710;28;20518;-61
2022/03/15 01:04:55;;;;;;;15.07;8.18;;;;;;;8.26;60.84;101826.91;4183299;28;20052;-60
2022/03/15 01:06:59;;;;;;;11.98;7.28;;;;;;;8.20;61.21;101821.44;4183538;28;20040;-60
2022/03/15 01:09:03;;;;;;;12.52;6.47;;;;;;;8.11;61.72;101821.03;4175077;28;20032;-60
2022/03/15 01:11:06;;;;;;;13.18;7.88;;;;;;;8.04;61.21;101810.41;4181348;28;20099;-61
2022/03/15 01:13:09;;;;;;;16.60;8.10;;;;;;;8.05;61.41;101816.47;4162917;28;20045;-60
2022/03/15 01:15:12;;;;;;;14.80;7.05;;;;;;;8.02;61.85;101819.78;4167133;28;20053;-62
2022/03/15 01:17:15;;;;;;;13.30;7.47;;;;;;;7.93;62.05;101819.38;4182317;28;20037;-59
2022/03/15 01:19:18;;;;;;;14.68;8.35;;;;;;;7.98;62.15;101825.63;4163409;28;20099;-61
2022/03/15 01:21:28;;;;;;;15.15;7.88;;;;;;;7.98;62.15;101810.09;4186843;28;20071;-61
2022/03/15 01:23:30;;;;;;;13.30;7.95;;;;;;;8.00;61.63;101808.47;4177993;28;20044;-61
2022/03/15 01:25:33;;;;;;;15.95;8.18;;;;;;;8.04;61.87;101810.41;4179176;28;20084;-61
2022/03/15 01:27:37;;;;;;;16.98;8.48;;;;;;;8.01;61.79;101809.34;4166289;28;20056;-62
2022/03/15 01:29:40;;;;;;;15.55;8.30;;;;;;;8.17;61.02;101792.81;4191800;28;20115;-61
2022/03/15 01:31:43;;;;;;;14.90;8.05;;;;;;;8.06;61.62;101796.63;4196574;28;20094;-61
2022/03/15 01:33:49;;;;;;;11.10;6.88;;;;;;;8.05;61.81;101813.88;4174392;28;20049;-61
2022/03/15 01:35:52;;;;;;;12.82;7.10;;;;;;;7.95;62.07;101820.31;4163332;28;20069;-61
2022/03/15 01:37:56;;;;;;;11.68;7.57;;;;;;;7.97;61.74;101808.34;4188164;28;20147;-62
2022/03/15 01:39:59;;;;;;;16.45;8.80;;;;;;;7.93;62.16;101796.06;4179390;28;20135;-61
2022/03/15 01:42:02;;;;;;;13.35;8.60;;;;;;;7.95;61.38;101804.78;4179084;28;20302;-60
2022/03/15 01:44:14;;;;;;;15.02;7.55;;;;;;;7.93;62.08;101811.59;4168739;28;20087;-59
2022/03/15 01:46:18;;;;;;;12.52;7.90;;;;;;;7.78;62.31;101801.41;4195891;28;20090;-61
2022/03/15 01:48:21;;;;;;;13.13;8.20;;;;;;;7.80;62.22;101798.91;4182560;28;20040;-61
2022/03/15 01:50:24;;;;;;;11.95;7.05;;;;;;;7.79;62.56;101802.28;4196682;28;20033;-61
2022/03/15 01:52:27;;;;;;;14.07;8.45;;;;;;;7.83;61.98;101802.50;4176490;28;20045;-62
2022/03/15 01:54:32;;;;;;;14.10;8.50;;;;;;;7.84;62.73;101795.59;4177653;28;20495;-61
2022/03/15 01:56:35;;;;;;;17.98;9.82;;;;;;;7.90;61.62;101782.97;4196663;28;20498;-61
2022/03/15 01:58:38;;;;;;;15.80;8.65;;;;;;;7.91;61.86;101787.31;4179222;28;20079;-61
2022/03/15 02:00:43;;;;;;;16.75;8.35;;;;;;;7.96;61.45;101785.84;4172217;28;20057;-61
2022/03/15 02:02:46;;;;;;;14.15;8.10;;;;;;;7.97;61.55;101782.44;4172955;28;20052;-61
2022/03/15 02:04:52;;;;;;;12.90;7.10;;;;;;;7.91;61.86;101782.13;4182843;28;20521;-61
2022/03/15 02:07:02;;;;;;;14.20;8.52;;;;;;;7.99;61.83;101783.38;4179099;28;20053;-61
2022/03/15 02:09:09;;;;;;;14.43;8.50;;;;;;;8.03;61.62;101777.53;4162844;28;20076;-61
2022/03/15 02:11:14;;;;;;;14.60;8.25;;;;;;;8.06;61.54;101774.22;4190868;28;20225;-61
2022/03/15 02:13:17;;;;;;;13.38;8.50;;;;;;;8.13;61.59;101788.31;4185163;28;20068;-61
2022/03/15 02:15:20;;;;;;;14.00;7.90;;;;;;;8.14;61.42;101784.91;4185944;28;20043;-61
2022/03/15 02:17:23;;;;;;;15.60;7.57;;;;;;;8.16;61.64;101793.63;4193659;28;20044;-61
2022/03/15 02:19:27;;;;;;;15.70;8.80;;;;;;;8.16;61.55;101793.63;4178341;28;20083;-61
2022/03/15 02:21:34;;;;;;;15.35;8.40;;;;;;;8.13;61.67;101786.63;4196052;28;20177;-61
2022/03/15 02:23:37;;;;;;;14.73;8.38;;;;;;;8.09;61.55;101776.03;4193198;28;20545;-61
2022/03/15 02:25:40;;;;;;;15.45;7.78;;;;;;;8.06;61.90;101776.81;4180323;28;20064;-61
2022/03/15 02:27:43;;;;;;;14.30;8.07;;;;;;;8.07;61.51;101778.56;4184877;28;20048;-61
2022/03/15 02:29:46;;;;;;;14.75;8.00;;;;;;;8.06;61.92;101786.25;4194416;28;20115;-61
2022/03/15 02:31:49;;;;;;;14.02;8.82;;;;;;;8.13;61.30;101781.44;4177245;28;20489;-61
2022/03/15 02:33:53;;;;;;;14.60;8.48;;;;;;;8.08;61.17;101779.47;4190193;28;20056;-61
2022/03/15 02:35:55;;;;;;;15.38;8.32;;;;;;;8.03;61.94;101782.72;4197590;28;20066;-61
2022/03/15 02:37:59;;;;;;;15.52;8.23;;;;;;;8.03;61.63;101774.94;4199537;28;20044;-61
2022/03/15 02:40:03;;;;;;;14.38;7.80;;;;;;;8.00;61.69;101781.69;4182535;28;20525;-61
2022/03/15 02:42:06;;;;;;;16.23;8.02;;;;;;;7.93;61.82;101785.69;4194544;28;20497;-61
2022/03/15 02:44:09;;;;;;;19.70;8.45;;;;;;;7.91;62.19;101783.84;4194655;28;20041;-61
2022/03/15 02:46:12;;;;;;;13.48;7.80;;;;;;;7.83;62.33;101778.31;4195487;28;20036;-61
2022/03/15 02:48:15;;;;;;;15.38;7.47;;;;;;;7.85;61.59;101771.50;4192936;28;20494;-59
2022/03/15 02:50:19;;;;;;;13.18;7.03;;;;;;;7.83;61.97;101771.44;4187416;28;20083;-61
2022/03/15 02:52:22;;;;;;;17.13;8.30;;;;;;;7.85;62.29;101771.50;4182664;28;20060;-62
2022/03/15 02:54:26;;;;;;;12.55;7.55;;;;;;;7.86;62.11;101773.28;4183237;28;20045;-61
2022/03/15 02:56:29;;;;;;;12.52;8.20;;;;;;;7.86;62.13;101768.09;4184567;28;20040;-61
2022/03/15 02:58:32;;;;;;;14.18;7.82;;;;;;;7.96;62.47;101765.13;4182130;28;20530;-61
2022/03/15 03:00:35;;;;;;;14.60;8.30;;;;;;;7.99;61.69;101751.44;4193480;28;20032;-61
2022/03/15 03:02:38;;;;;;;18.27;8.50;;;;;;;7.82;62.12;101754.13;4191180;28;20037;-61
2022/03/15 03:04:42;;;;;;;13.77;7.45;;;;;;;7.76;62.55;101760.72;4184557;28;20446;-61
2022/03/15 03:06:47;;;;;;;16.45;8.05;;;;;;;7.80;63.23;101770.41;4198275;28;20040;-61
2022/03/15 03:08:49;;;;;;;13.95;7.97;;;;;;;7.76;62.82;101756.44;4181825;28;20099;-61
2022/03/15 03:10:54;;;;;;;14.77;7.60;;;;;;;7.77;63.69;101759.88;4198588;28;20410;-61
2022/03/15 03:12:56;;;;;;;15.63;7.88;;;;;;;7.69;63.64;101760.44;4165737;28;20116;-62
2022/03/15 03:15:01;;;;;;;12.23;7.70;;;;;;;7.72;63.71;101751.91;4176430;28;20049;-62
2022/03/15 03:17:04;;;;;;;13.25;7.85;;;;;;;7.71;63.72;101742.41;4179853;28;20072;-62
2022/03/15 03:19:08;;;;;;;14.55;7.90;;;;;;;7.68;63.62;101737.97;4181097;28;20435;-61
2022/03/15 03:21:12;;;;;;;14.23;7.47;;;;;;;7.63;63.81;101744.59;4186854;28;20051;-61
2022/03/15 03:23:16;;;;;;;16.35;7.45;;;;;;;7.65;64.19;101742.09;4182417;28;20044;-62
2022/03/15 03:25:19;;;;;;;17.08;8.98;;;;;;;7.63;64.17;101733.38;4190470;28;20033;-62
2022/03/15 03:27:23;;;;;;;12.77;7.65;;;;;;;7.62;64.23;101736.78;4190808;28;20037;-61
2022/03/15 03:29:28;;;;;;;12.63;7.72;;;;;;;7.57;64.52;101730.50;4190085;28;20491;-61
2022/03/15 03:31:32;;;;;;;12.93;6.88;;;;;;;7.60;64.08;101728.94;4198380;28;20044;-61
2022/03/15 03:33:36;;;;;;;12.48;7.25;;;;;;;7.64;64.63;101720.50;4197416;28;20560;-61
2022/03/15 03:35:38;;;;;;;14.30;7.65;;;;;;;7.60;64.57;101728.94;4181629;28;20059;-61
2022/03/15 03:37:41;;;;;;;14.50;8.18;;;;;;;7.60;64.30;101722.88;4194344;28;20044;-61
2022/03/15 03:39:44;;;;;;;14.57;7.53;;;;;;;7.62;64.21;101721.25;4199153;28;20107;-61
2022/03/15 03:41:46;;;;;;;13.25;7.60;;;;;;;7.65;64.12;101711.94;4199246;28;20094;-61
2022/03/15 03:43:51;;;;;;;15.95;7.78;;;;;;;7.68;64.29;101711.16;4191174;28;20040;-62
2022/03/15 03:45:53;;;;;;;13.32;8.00;;;;;;;7.68;64.48;101706.91;4192140;28;20052;-61
2022/03/15 03:47:56;;;;;;;15.57;8.05;;;;;;;7.68;64.45;101722.44;4189403;28;20044;-61
2022/03/15 03:49:59;;;;;;;11.38;7.47;;;;;;;7.72;64.42;101715.69;4190749;28;20044;-61
2022/03/15 03:52:05;;;;;;;;;;;;;;;7.54;64.32;101720.03;4193375;28;20147;-61
2022/03/15 03:54:09;;;;;;;14.82;7.40;;;;;;;7.57;64.88;101728.78;4183928;28;20023;-61
2022/03/15 03:56:12;;;;;;;9.75;6.55;;;;;;;7.60;64.37;101721.19;4197517;28;20511;-61
2022/03/15 03:58:14;;;;;;;12.35;7.60;;;;;;;7.56;64.79;101721.84;4171929;28;20120;-61
2022/03/15 04:00:19;;;;;;;12.50;7.45;;;;;;;7.61;64.80;101715.19;4189184;28;20037;-61
2022/03/15 04:02:22;;;;;;;10.02;7.40;;;;;;;7.65;64.78;101711.94;4198029;28;20106;-61
2022/03/15 04:04:25;;;;;;;12.98;6.78;;;;;;;7.67;64.03;101718.06;4191695;28;20506;-61
2022/03/15 04:06:28;;;;;;;10.93;7.32;;;;;;;7.63;64.11;101718.72;4185766;28;20118;-61
2022/03/15 04:08:31;;;;;;;10.75;7.60;;;;;;;7.58;64.83;101716.72;4189807;28;20036;-62
2022/03/15 04:10:34;;;;;;;13.57;7.82;;;;;;;7.55;64.81;101714.91;4197494;28;20402;-61
2022/03/15 04:12:38;;;;;;;11.37;7.40;;;;;;;7.50;65.04;101716.38;4197951;28;20127;-61
2022/03/15 04:14:41;;;;;;;14.13;7.88;;;;;;;7.49;64.62;101718.09;4168309;28;20041;-61
2022/03/15 04:16:45;;;;;;;14.77;8.18;;;;;;;7.46;65.08;101717.97;4164568;28;20096;-61
2022/03/15 04:18:50;;;;;;;15.85;8.70;;;;;;;7.50;64.53;101706.94;4179860;28;20048;-61
2022/03/15 04:20:53;;;;;;;10.45;6.90;;;;;;;7.50;64.88;101712.13;4198661;28;20098;-60
2022/03/15 04:22:56;;;;;;;15.10;8.07;;;;;;;7.58;64.60;101715.06;4197175;28;20079;-60
2022/03/15 04:24:59;;;;;;;16.40;7.85;;;;;;;7.62;64.53;101722.16;4194537;28;20033;-60
2022/03/15 04:27:01;;;;;;;17.02;8.27;;;;;;;7.63;64.31;101721.31;4194148;28;20052;-60
2022/03/15 04:29:04;;;;;;;11.05;7.53;;;;;;;7.59;63.68;101715.94;4198244;28;20044;-59
2022/03/15 04:31:07;;;;;;;15.85;7.13;;;;;;;7.54;63.71;101713.13;4194201;28;20041;-60
2022/03/15 04:33:12;;;;;;;11.30;7.25;;;;;;;7.51;64.05;101707.81;4178569;28;20068;-60
2022/03/15 04:35:14;;;;;;;12.43;7.45;;;;;;;7.45;63.48;101702.38;4180467;28;20061;-60
2022/03/15 04:37:18;;;;;;;10.27;7.20;;;;;;;7.50;63.60;101701.78;4197687;28;20501;-60
2022/03/15 04:39:21;;;;;;;12.70;7.40;;;;;;;7.54;63.58;101702.78;4197256;28;20047;-60
2022/03/15 04:41:24;;;;;;;14.02;7.97;;;;;;;7.57;64.02;101702.91;4179709;28;20045;-60
2022/03/15 04:43:28;;;;;;;12.77;7.93;;;;;;;7.63;63.69;101699.72;4191633;28;20045;-60
2022/03/15 04:45:30;;;;;;;16.85;8.23;;;;;;;7.69;63.48;101698.31;4179078;28;20052;-59
2022/03/15 04:47:33;;;;;;;12.55;7.93;;;;;;;7.67;63.31;101701.66;4178022;28;20040;-59
2022/03/15 04:49:37;;;;;;;11.27;7.25;;;;;;;7.67;63.57;101693.88;4197048;28;20049;-60
2022/03/15 04:51:40;;;;;;;15.93;7.47;;;;;;;7.65;63.69;101683.47;4181644;28;20045;-60
2022/03/15 04:53:44;;;;;;;15.97;8.70;;;;;;;7.65;63.79;101685.16;4185325;28;20311;-60
2022/03/15 04:55:47;;;;;;;14.10;7.47;;;;;;;7.67;63.46;101679.22;4192981;28;20040;-59
2022/03/15 04:57:49;;;;;;;11.13;7.50;;;;;;;7.69;63.68;101671.53;4188147;28;20044;-60
2022/03/15 04:59:52;;;;;;;14.77;7.47;;;;;;;7.69;63.92;101676.72;4197334;28;20072;-60
2022/03/15 05:01:55;;;;;;;15.75;8.63;;;;;;;7.71;63.92;101675.09;4192855;28;20044;-60
2022/03/15 05:03:58;;;;;;;12.98;7.72;;;;;;;7.75;64.21;101665.75;4185471;28;20048;-59
2022/03/15 05:06:02;;;;;;;14.73;7.78;;;;;;;7.71;64.27;101674.19;4187626;28;20113;-60
2022/03/15 05:08:05;;;;;;;14.80;7.03;;;;;;;7.67;64.29;101674.06;4184025;28;20446;-59
2022/03/15 05:12:29;;;;;;;11.50;7.13;;;;;;;7.66;63.93;101676.56;4181646;28;20557;-60
2022/03/15 05:14:31;;;;;;;18.10;9.38;;;;;;;7.68;64.26;101669.75;4188498;28;20048;-59
2022/03/15 05:16:34;;;;;;;15.95;7.22;;;;;;;7.69;63.73;101669.84;4179804;28;20095;-60
2022/03/15 05:18:37;;;;;;;15.20;8.13;;;;;;;7.71;63.86;101677.69;4185433;28;20045;-59
2022/03/15 05:20:40;;;;;;;16.13;8.00;;;;;;;7.71;63.75;101674.19;4194281;28;20098;-60
2022/03/15 05:22:44;;;;;;;13.55;7.57;;;;;;;7.71;63.67;101674.19;4193089;28;20041;-60
2022/03/15 05:24:47;;;;;;;17.95;8.15;;;;;;;7.69;63.81;101677.63;4195769;28;20040;-59
2022/03/15 05:26:49;;;;;;;12.07;7.18;;;;;;;7.68;63.54;101672.34;4188791;28;20110;-60
2022/03/15 05:28:52;;;;;;;13.32;7.75;;;;;;;7.73;63.86;101672.59;4183973;28;20048;-60
2022/03/15 05:30:55;;;;;;;14.55;7.70;;;;;;;7.75;63.83;101660.59;4197019;28;20107;-59
2022/03/15 05:32:58;;;;;;;12.10;7.63;;;;;;;7.74;64.10;101666.56;4176404;28;20048;-60
2022/03/15 05:35:02;;;;;;;13.80;8.73;;;;;;;7.73;63.87;101662.22;4191325;28;20033;-59
2022/03/15 05:37:06;;;;;;;17.50;9.03;;;;;;;7.71;63.71;101654.41;4190859;28;20608;-60
2022/03/15 05:39:10;;;;;;;15.30;8.82;;;;;;;7.73;63.57;101664.81;4165240;28;20045;-60
2022/03/15 05:41:12;;;;;;;16.20;8.27;;;;;;;7.67;63.58;101663.72;4185021;28;20040;-61
2022/03/15 05:43:29;;;;;;;13.70;7.63;;;;;;;7.60;64.47;101661.66;4187104;28;20310;-60
2022/03/15 05:45:34;;;;;;;22.45;9.07;;;;;;;7.53;64.74;101664.78;4194062;28;20044;-60
2022/03/15 05:47:38;;;;;;;13.02;7.65;;;;;;;7.54;64.36;101657.91;4195677;28;20040;-60
2022/03/15 05:49:40;;;;;;;17.85;7.05;;;;;;;7.59;64.63;101659.00;4200905;28;20044;-60
2022/03/15 05:51:43;;;;;;;17.17;8.80;;;;;;;7.66;64.40;101661.06;4214147;28;20447;-60
2022/03/15 05:53:46;;;;;;;11.18;7.35;;;;;;;7.69;64.73;101661.19;4203174;28;20070;-60
2022/03/15 05:55:50;;;;;;;11.35;6.50;;;;;;;7.71;64.59;101654.41;4186620;28;20044;-60
2022/03/15 05:57:53;;;;;;;17.15;8.52;;;;;;;7.67;64.50;101653.34;4179208;28;20041;-59
2022/03/15 05:59:55;;;;;;;14.05;7.95;;;;;;;7.72;64.50;101660.44;4162836;28;20053;-60
2022/03/15 06:01:58;;;;;;;15.65;7.55;;;;;;;7.75;64.74;101650.22;4180349;28;20449;-60
2022/03/15 06:04:01;;;;;;;13.77;7.88;;;;;;;7.82;64.13;101653.16;4192959;28;20051;-60
2022/03/15 06:06:04;;;;;;;14.05;8.10;;;;;;;7.84;64.45;101650.63;4213498;28;20055;-60
2022/03/15 06:08:08;;;;;;;15.18;7.15;;;;;;;7.82;64.26;101649.69;4182403;28;20404;-60
2022/03/15 06:10:12;;;;;;;14.50;8.05;;;;;;;7.82;63.98;101644.50;4184715;28;20037;-60
2022/03/15 06:12:20;;;;;;;14.20;8.07;;;;;;;7.79;64.60;101647.84;4190426;28;20418;-60
2022/03/15 06:14:23;;;;;;;17.58;8.52;;;;;;;7.78;64.10;101647.78;4180597;28;20110;-59
2022/03/15 06:16:26;;;;;;;14.23;7.72;;;;;;;7.82;64.17;101652.28;4193962;28;20041;-60
2022/03/15 06:18:28;;;;;;;14.02;7.38;;;;;;;7.77;64.48;101648.56;4197052;28;20044;-60
2022/03/15 06:20:31;;;;;;;20.88;8.00;;;;;;;7.75;64.46;101655.41;4177592;28;20057;-60
2022/03/15 06:22:35;;;;;;;13.63;7.30;;;;;;;7.68;64.62;101659.41;4190511;28;20025;-60
2022/03/15 06:24:37;;;;;;;12.88;7.45;;;;;;;7.61;65.07;101660.84;4180464;28;20115;-60
2022/03/15 06:26:43;;;;;;;16.98;7.35;;;;;;;7.46;66.00;101665.31;4187406;28;20040;-60
2022/03/15 06:28:48;;;;;;;18.63;8.52;;;;;;;7.34;66.17;101663.94;4178012;28;20053;-60
2022/03/15 06:30:50;;;;;;;16.25;7.60;;;;;;;7.32;66.31;101664.69;4195435;28;20099;-59
2022/03/15 06:32:53;;;;;;;16.08;7.10;;;;;;;7.30;66.80;101671.47;4195086;28;20114;-59
2022/03/15 06:34:56;;;;;;;14.57;7.57;;;;;;;7.31;66.00;101668.94;4178110;28;20053;-62
2022/03/15 06:37:00;;;;;;;14.65;7.93;;;;;;;7.22;66.43;101673.69;4177258;28;20052;-61
2022/03/15 06:39:03;;;;;;;16.42;7.13;;;;;;;7.21;66.37;101669.31;4178132;28;20530;-60
2022/03/15 06:41:07;;;;;;;12.13;6.60;;;;;;;7.24;66.51;101668.59;4195997;28;20039;-60
2022/03/15 06:43:13;;;;;;;11.82;7.43;;;;;;;7.24;66.20;101661.75;4193970;28;20040;-60
2022/03/15 06:45:18;;;;;;;13.00;7.20;;;;;;;7.38;65.60;101662.38;4194907;28;20056;-60
2022/03/15 06:47:20;;;;;;;13.18;7.15;;;;;;;7.38;65.68;101658.91;4176266;28;20069;-60
2022/03/15 06:49:23;;;;;;;14.65;7.03;;;;;;;7.25;65.47;101660.91;4194409;28;20044;-61
2022/03/15 06:51:27;;;;;;;14.98;6.85;;;;;;;7.25;65.38;101652.28;4193084;28;20041;-60
2022/03/15 06:53:33;;;;;;;13.40;7.15;;;;;;;7.20;65.64;101649.47;4190258;28;20048;-60
2022/03/15 06:55:36;;;;;;;12.77;7.30;;;;;;;7.18;65.76;101661.44;4194479;28;20048;-60
2022/03/15 06:57:39;;;;;;;12.73;6.80;;;;;;;7.10;66.07;101668.81;4171887;28;20112;-60
2022/03/15 06:59:42;;;;;;;12.35;6.43;;;;;;;7.11;65.80;101659.34;4175200;28;20111;-60
2022/03/15 07:01:46;;;;;;;13.45;6.40;;;;;;;7.09;66.28;101656.69;4192084;28;20049;-60
2022/03/15 07:03:50;;;;;;;14.57;6.47;;;;;;;7.12;65.83;101661.13;4180526;28;21251;-59
2022/03/15 07:05:54;;;;;;;;;;;;;;;7.07;66.53;101652.28;4195037;28;20051;-59
2022/03/15 07:07:57;;;;;;;12.10;6.53;;;;;;;7.18;66.32;101651.06;4195621;28;20305;-60
2022/03/15 07:10:01;;;;;;;11.35;6.45;;;;;;;7.19;66.14;101652.84;4195489;28;20497;-60
2022/03/15 07:12:05;;;;;;;15.07;7.28;;;;;;;7.17;66.24;101664.84;4191740;28;20029;-60
2022/03/15 07:14:07;;;;;;;13.88;6.97;;;;;;;7.13;66.22;101657.75;4195729;28;20033;-62
2022/03/15 07:16:10;;;;;;;10.90;6.40;;;;;;;7.12;66.08;101649.09;4180540;28;20124;-60
2022/03/15 07:18:15;;;;;;;14.98;7.60;;;;;;;7.25;65.76;101645.38;4176039;28;20053;-61
2022/03/15 07:20:18;;;;;;;17.60;8.95;;;;;;;7.40;66.02;101644.34;4194541;28;20045;-60
2022/03/15 07:22:21;;;;;;;17.38;8.07;;;;;;;7.52;65.78;101644.91;4194639;28;20041;-61
2022/03/15 07:24:24;;;;;;;11.88;7.22;;;;;;;7.60;65.39;101643.53;4194074;28;20044;-61
2022/03/15 07:26:27;;;;;;;13.63;6.22;;;;;;;7.60;65.63;101640.94;4197634;28;20052;-61
2022/03/15 07:28:30;;;;;;;18.65;7.07;;;;;;;7.60;65.88;101648.72;4198570;28;20040;-62
2022/03/15 07:30:33;;;;;;;15.00;6.93;;;;;;;7.53;65.87;101638.91;4194117;28;20406;-61
2022/03/15 07:32:36;;;;;;;10.77;5.97;;;;;;;7.55;65.79;101636.38;4189206;28;20041;-61
2022/03/15 07:34:40;;;;;;;9.95;6.10;;;;;;;7.60;65.86;101640.94;4174984;28;20518;-61
2022/03/15 07:36:43;;;;;;;10.75;6.18;;;;;;;7.69;65.42;101635.31;4184193;28;20095;-62
2022/03/15 07:38:45;;;;;;;12.95;6.97;;;;;;;7.74;65.34;101638.09;4194622;28;20095;-61
2022/03/15 07:40:49;;;;;;;10.95;6.07;;;;;;;7.76;65.04;101636.47;4180233;28;20048;-61
2022/03/15 07:42:52;;;;;;;19.95;7.03;;;;;;;7.75;65.55;101639.88;4182629;28;20048;-60
2022/03/15 07:44:55;;;;;;;13.13;6.78;;;;;;;7.76;65.01;101642.53;4198308;28;20040;-59
2022/03/15 07:46:58;;;;;;;14.68;6.60;;;;;;;7.76;65.33;101642.53;4193421;28;20105;-60
2022/03/15 07:49:01;;;;;;;15.25;7.43;;;;;;;7.61;65.46;101644.44;4189612;28;20097;-59
2022/03/15 07:51:05;;;;;;;16.48;7.45;;;;;;;7.55;65.70;101645.03;4186443;28;20047;-59
2022/03/15 07:53:08;;;;;;;16.98;7.53;;;;;;;7.57;66.11;101650.28;4184964;28;20033;-59
2022/03/15 07:55:11;;;;;;;15.30;7.82;;;;;;;7.67;65.73;101661.13;4193038;28;20032;-59
2022/03/15 07:57:14;;;;;;;13.43;8.07;;;;;;;7.70;65.63;101652.63;4187590;28;20036;-60
2022/03/15 07:59:17;;;;;;;19.27;8.45;;;;;;;7.67;65.22;101648.19;4192976;28;20595;-59
2022/03/15 08:01:20;;;;;;;23.08;8.75;;;;;;;7.62;65.77;101641.00;4195073;28;20033;-59
2022/03/15 08:03:24;;;;;;;15.68;7.90;;;;;;;7.71;65.96;101645.72;4197940;28;20037;-60
2022/03/15 08:05:28;;;;;;;17.15;7.40;;;;;;;7.79;65.42;101636.59;4193598;28;20073;-59
2022/03/15 08:07:34;;;;;;;15.75;8.20;;;;;;;7.85;65.83;101632.56;4186489;28;20580;-59
2022/03/15 08:09:38;;;;;;;19.17;8.73;;;;;;;7.90;65.54;101640.56;4197769;28;20401;-60
2022/03/15 08:11:41;;;;;;;26.55;10.02;;;;;;;8.00;65.24;101636.66;4185429;28;20073;-59
2022/03/15 08:13:49;;;;;;;13.20;8.35;;;;;;;7.95;65.53;101636.47;4194666;28;20449;-61
2022/03/15 08:15:58;;;;;;;14.02;8.45;;;;;;;8.02;64.91;101630.72;4196603;28;20043;-60
2022/03/15 08:18:05;;;;;;;21.02;9.32;;;;;;;8.13;64.90;101627.72;4188278;28;20055;-60
2022/03/15 08:20:12;;;;;;;19.20;9.05;;;;;;;8.20;64.75;101621.97;4194037;28;20121;-60
2022/03/15 08:22:14;;;;;;;18.15;9.90;;;;;;;8.29;64.60;101624.06;4196377;28;20450;-59
2022/03/15 08:24:20;;;;;;;21.85;9.65;;;;;;;8.51;63.75;101615.53;4195549;28;20043;-67
2022/03/15 08:26:23;;;;;;;15.05;9.05;;;;;;;8.37;64.37;101625.31;4191069;28;20049;-59
2022/03/15 08:28:26;;;;;;;19.52;10.32;;;;;;;8.37;63.88;101612.34;4187238;28;20408;-59
2022/03/15 08:30:28;;;;;;;20.88;9.88;;;;;;;8.55;63.60;101613.13;4184043;28;20481;-59
2022/03/15 08:32:31;;;;;;;23.75;10.40;;;;;;;8.52;63.95;101610.41;4170749;28;20053;-60
2022/03/15 08:34:34;;;;;;;19.90;10.35;;;;;;;8.62;62.80;101608.22;4170231;28;20096;-58
2022/03/15 08:36:40;;;;;;;23.08;10.82;;;;;;;8.47;63.56;101605.84;4168525;28;20048;-59
2022/03/15 08:38:43;;;;;;;16.63;9.07;;;;;;;8.45;63.83;101604.91;4184003;28;20041;-59
2022/03/15 08:40:47;;;;;;;16.02;8.40;;;;;;;8.64;62.88;101596.19;4188922;28;20040;-59
2022/03/15 08:42:52;;;;;;;17.13;7.93;;;;;;;8.53;62.63;101591.44;4191357;28;20498;-59
2022/03/15 08:44:54;;;;;;;12.77;7.70;;;;;;;8.53;62.72;101591.44;4184628;28;20559;-59
2022/03/15 08:46:57;;;;;;;15.20;8.55;;;;;;;8.56;63.37;101594.16;4191084;28;20053;-59
2022/03/15 08:49:00;;;;;;;13.55;8.13;;;;;;;8.64;63.29;101586.69;4180115;28;20429;-59
2022/03/15 08:51:03;;;;;;;12.20;6.38;;;;;;;8.69;63.63;101580.00;4179649;28;20053;-59
2022/03/15 08:53:06;;;;;;;18.02;8.50;;;;;;;8.74;63.23;101578.44;4180109;28;20118;-69
2022/03/15 08:55:09;;;;;;;14.68;7.75;;;;;;;8.81;62.92;101574.41;4176970;28;20482;-59
2022/03/15 08:57:14;;;;;;;16.08;8.40;;;;;;;9.02;61.77;101558.81;4183275;28;20041;-58
2022/03/15 08:59:20;;;;;;;14.82;7.30;;;;;;;9.02;61.36;101564.00;4188384;28;20129;-58
2022/03/15 09:01:23;;;;;;;16.67;8.07;;;;;;;8.97;62.01;101555.13;4197118;28;20413;-59
2022/03/15 09:03:41;;;;;;;14.95;7.35;;;;;;;8.99;61.94;101553.47;4188186;28;20106;-59
2022/03/15 09:05:44;;;;;;;16.00;8.27;;;;;;;9.03;62.06;101544.13;4214310;28;20241;-58
2022/03/15 09:07:53;;;;;;;15.80;7.22;;;;;;;9.12;62.19;101544.47;4190324;28;20524;-58
2022/03/15 09:09:55;;;;;;;13.80;7.28;;;;;;;9.21;61.87;101544.81;4197884;28;20044;-59
2022/03/15 09:11:58;;;;;;;12.20;6.85;;;;;;;9.18;61.62;101539.50;4179350;28;20052;-59
2022/03/15 09:14:03;;;;;;;13.35;6.60;;;;;;;9.23;61.44;101547.47;4184967;28;20048;-59
2022/03/15 09:16:06;;;;;;;19.92;7.05;;;;;;;9.20;61.40;101547.31;4186397;28;20048;-59
2022/03/15 09:18:08;;;;;;;14.25;6.75;;;;;;;9.28;60.80;101548.50;4191375;28;20422;-59
2022/03/15 09:20:11;;;;;;;12.77;6.38;;;;;;;9.33;60.75;101546.97;4171933;28;20059;-59
2022/03/15 09:22:14;;;;;;;11.85;6.57;;;;;;;9.36;60.64;101549.69;4184238;28;20044;-59
2022/03/15 09:24:17;;;;;;;14.43;7.78;;;;;;;9.41;60.57;101544.66;4183040;28;20087;-58
2022/03/15 09:26:22;;;;;;;12.90;7.00;;;;;;;9.37;59.74;101542.78;4185547;28;20036;-58
2022/03/15 09:28:24;;;;;;;;;;;;;;;9.25;60.82;101536.28;4181363;28;20043;-58
2022/03/15 09:30:30;;;;;;;11.90;6.47;;;;;;;9.38;60.75;101528.97;4179114;28;19975;-59
2022/03/15 09:32:33;;;;;;;11.80;6.25;;;;;;;9.44;60.88;101534.38;4178531;28;20052;-59
2022/03/15 09:34:36;;;;;;;10.10;5.97;;;;;;;9.55;61.06;101525.28;4166643;28;20041;-59
2022/03/15 09:36:39;;;;;;;15.73;7.93;;;;;;;9.56;61.19;101511.47;4179595;28;20043;-59
2022/03/15 09:38:44;;;;;;;12.40;7.25;;;;;;;9.64;60.84;101516.03;4175784;28;20039;-61